Time;durP1;ratioP1;P1;durP2;ratioP2;P2;SDS_P1;SDS_P2;PMS_P1;PMS_P2;Temp;Humidity;BMP_temperature;BMP_pressure;BME280_temperature;BME280_humidity;BME280_pressure;Samples;Min_cycle;Max_cycle;Signal;HPM_P1;HPM_P2
2022/03/23 00:01:44;;;;;;;;;;;;;;;;;;5005500;28;19937;-82
2022/03/23 00:04:09;;;;;;;;;;;;;;;;;;5006172;28;19924;-82
2022/03/23 00:06:34;;;;;;;;;;;;;;;;;;5004928;28;19909;-82
2022/03/23 00:09:00;;;;;;;;;;;;;;;;;;5005252;28;19998;-83
2022/03/23 00:11:26;;;;;;;;;;;;;;;;;;5004170;28;19910;-82
2022/03/23 00:13:51;;;;;;;;;;;;;;;;;;5022307;28;19917;-82
2022/03/23 00:16:18;;;;;;;;;;;;;;;;;;5021508;28;20407;-82
2022/03/23 00:18:43;;;;;;;;;;;;;;;;;;5005369;28;19914;-82
2022/03/23 00:21:08;;;;;;;;;;;;;;;;;;5004290;28;19910;-82
2022/03/23 00:23:33;;;;;;;;;;;;;;;;;;5004036;28;19913;-82
2022/03/23 00:25:59;;;;;;;;;;;;;;;;;;5004006;28;19909;-82
2022/03/23 00:28:24;;;;;;;;;;;;;;;;;;5003571;28;19933;-82
2022/03/23 00:30:49;;;;;;;;;;;;;;;;;;5004161;28;19910;-82
2022/03/23 00:33:15;;;;;;;;;;;;;;;;;;5004449;28;19928;-82
2022/03/23 00:35:40;;;;;;;;;;;;;;;;;;5022163;28;19913;-82
2022/03/23 00:38:05;;;;;;;;;;;;;;;;;;5003456;28;19909;-82
2022/03/23 00:40:30;;;;;;;;;;;;;;;;;;5021517;28;19917;-82
2022/03/23 00:42:55;;;;;;;;;;;;;;;;;;5003671;28;19917;-82
2022/03/23 00:45:20;;;;;;;;;;;;;;;;;;5002400;28;19913;-82
2022/03/23 00:47:47;;;;;;;;;;;;;;;;;;5003135;28;19910;-83
2022/03/23 00:50:12;;;;;;;;;;;;;;;;;;5004041;28;19924;-82
2022/03/23 00:52:37;;;;;;;;;;;;;;;;;;5004793;28;19984;-81
2022/03/23 00:55:02;;;;;;;;;;;;;;;;;;5020123;28;19905;-82
2022/03/23 00:57:28;;;;;;;;;;;;;;;;;;5019243;28;19910;-81
2022/03/23 00:59:53;;;;;;;;;;;;;;;;;;5018856;28;19909;-81
2022/03/23 01:02:18;;;;;;;;;;;;;;;;;;5019314;28;19936;-82
2022/03/23 01:04:43;;;;;;;;;;;;;;;;;;5018918;28;20015;-81
2022/03/23 01:07:08;;;;;;;;;;;;;;;;;;5019905;28;20368;-83
2022/03/23 01:09:33;;;;;;;;;;;;;;;;;;5019097;28;19911;-83
2022/03/23 01:11:58;;;;;;;;;;;;;;;;;;5020134;28;19917;-82
2022/03/23 01:14:23;;;;;;;;;;;;;;;;;;5020473;28;20386;-82
2022/03/23 01:16:50;;;;;;;;;;;;;;;;;;5017761;28;20232;-83
2022/03/23 01:19:16;;;;;;;;;;;;;;;;;;5019184;28;19909;-82
2022/03/23 01:21:41;;;;;;;;;;;;;;;;;;5019644;28;19916;-82
2022/03/23 01:24:07;;;;;;;;;;;;;;;;;;5020152;28;19910;-82
2022/03/23 01:26:32;;;;;;;;;;;;;;;;;;5020236;28;19910;-83
2022/03/23 01:28:57;;;;;;;;;;;;;;;;;;5020192;28;19909;-83
2022/03/23 01:31:22;;;;;;;;;;;;;;;;;;5021477;28;19910;-82
2022/03/23 01:33:47;;;;;;;;;;;;;;;;;;5019483;28;20430;-82
2022/03/23 01:36:12;;;;;;;;;;;;;;;;;;5019987;28;19967;-83
2022/03/23 01:38:37;;;;;;;;;;;;;;;;;;5021515;28;20414;-82
2022/03/23 01:41:02;;;;;;;;;;;;;;;;;;5020350;28;19972;-83
2022/03/23 01:43:28;;;;;;;;;;;;;;;;;;5021752;28;19953;-82
2022/03/23 01:45:53;;;;;;;;;;;;;;;;;;5021403;28;20343;-82
2022/03/23 01:48:18;;;;;;;;;;;;;;;;;;5017705;28;19947;-83
2022/03/23 01:50:43;;;;;;;;;;;;;;;;;;5018573;28;20344;-81
2022/03/23 01:53:09;;;;;;;;;;;;;;;;;;5017373;28;19921;-82
2022/03/23 01:55:34;;;;;;;;;;;;;;;;;;5019054;28;19937;-82
2022/03/23 01:57:59;;;;;;;;;;;;;;;;;;5019211;28;20375;-83
2022/03/23 02:00:26;;;;;;;;;;;;;;;;;;5018297;28;19920;-83
2022/03/23 02:02:52;;;;;;;;;;;;;;;;;;5017786;28;19917;-83
2022/03/23 02:05:17;;;;;;;;;;;;;;;;;;5016800;28;20012;-83
2022/03/23 02:07:42;;;;;;;;;;;;;;;;;;5018081;28;19932;-82
2022/03/23 02:10:07;;;;;;;;;;;;;;;;;;5017760;28;19921;-83
2022/03/23 02:12:32;;;;;;;;;;;;;;;;;;5018627;28;19965;-83
2022/03/23 02:14:58;;;;;;;;;;;;;;;;;;5019891;28;19901;-82
2022/03/23 02:17:23;;;;;;;;;;;;;;;;;;5017687;28;19921;-83
2022/03/23 02:19:48;;;;;;;;;;;;;;;;;;5018210;28;19916;-83
2022/03/23 02:22:14;;;;;;;;;;;;;;;;;;5017529;28;19920;-83
2022/03/23 02:24:39;;;;;;;;;;;;;;;;;;5018895;28;20303;-82
2022/03/23 02:27:04;;;;;;;;;;;;;;;;;;5018361;28;20302;-83
2022/03/23 02:29:31;;;;;;;;;;;;;;;;;;5020714;28;19909;-82
2022/03/23 02:32:01;;;;;;;;;;;;;;;;;;5021447;28;19913;-82
2022/03/23 02:34:26;;;;;;;;;;;;;;;;;;5020247;28;20012;-82
2022/03/23 02:36:51;;;;;;;;;;;;;;;;;;5019544;28;19957;-82
2022/03/23 02:39:16;;;;;;;;;;;;;;;;;;5019659;28;19909;-82
2022/03/23 02:41:41;;;;;;;;;;;;;;;;;;5020538;28;19916;-82
2022/03/23 02:44:06;;;;;;;;;;;;;;;;;;5021896;28;19916;-82
2022/03/23 02:46:35;;;;;;;;;;;;;;;;;;5020936;28;19917;-82
2022/03/23 02:49:00;;;;;;;;;;;;;;;;;;5021267;28;19917;-82
2022/03/23 02:51:26;;;;;;;;;;;;;;;;;;5026616;28;19914;-81
2022/03/23 03:02:02;;;;;;;;;;;;;;;;;;5028554;28;19916;-82
2022/03/23 03:04:28;;;;;;;;;;;;;;;;;;5028456;28;19993;-83
2022/03/23 03:06:53;;;;;;;;;;;;;;;;;;5026716;28;19980;-83
2022/03/23 03:09:23;;;;;;;;;;;;;;;;;;5010956;28;20283;-83
2022/03/23 03:11:48;;;;;;;;;;;;;;;;;;5010363;28;19924;-80
2022/03/23 03:14:13;;;;;;;;;;;;;;;;;;5010098;28;19913;-83
2022/03/23 03:16:38;;;;;;;;;;;;;;;;;;5010379;28;20279;-81
2022/03/23 03:19:04;;;;;;;;;;;;;;;;;;5009865;28;20378;-82
2022/03/23 03:21:29;;;;;;;;;;;;;;;;;;5010241;28;20387;-83
2022/03/23 03:23:54;;;;;;;;;;;;;;;;;;5023063;28;19955;-83
2022/03/23 03:26:19;;;;;;;;;;;;;;;;;;5023763;28;19988;-82
2022/03/23 03:28:44;;;;;;;;;;;;;;;;;;5023805;28;19945;-83
2022/03/23 03:31:10;;;;;;;;;;;;;;;;;;5023753;28;19912;-83
2022/03/23 03:33:35;;;;;;;;;;;;;;;;;;5006103;28;19925;-81
2022/03/23 03:36:00;;;;;;;;;;;;;;;;;;5005656;28;20382;-82
2022/03/23 03:38:25;;;;;;;;;;;;;;;;;;5006712;28;19909;-82
2022/03/23 03:40:50;;;;;;;;;;;;;;;;;;5025739;28;19964;-83
2022/03/23 03:43:16;;;;;;;;;;;;;;;;;;5009027;28;19940;-82
2022/03/23 03:45:41;;;;;;;;;;;;;;;;;;5007807;28;19917;-82
2022/03/23 03:48:06;;;;;;;;;;;;;;;;;;5007629;28;19910;-83
2022/03/23 03:50:31;;;;;;;;;;;;;;;;;;5008025;28;20009;-82
2022/03/23 03:52:56;;;;;;;;;;;;;;;;;;5007973;28;20043;-82
2022/03/23 03:55:21;;;;;;;;;;;;;;;;;;5024412;28;19948;-83
2022/03/23 03:57:47;;;;;;;;;;;;;;;;;;5023485;28;20486;-82
2022/03/23 04:00:12;;;;;;;;;;;;;;;;;;5024125;28;19953;-82
2022/03/23 04:02:37;;;;;;;;;;;;;;;;;;5021464;28;19918;-82
2022/03/23 04:05:02;;;;;;;;;;;;;;;;;;5023465;28;19917;-81
2022/03/23 04:07:27;;;;;;;;;;;;;;;;;;5020732;28;20382;-83
2022/03/23 04:09:52;;;;;;;;;;;;;;;;;;5019552;28;19909;-82
2022/03/23 04:12:17;;;;;;;;;;;;;;;;;;5022354;28;20379;-83
2022/03/23 04:14:43;;;;;;;;;;;;;;;;;;5020311;28;20356;-82
2022/03/23 04:17:08;;;;;;;;;;;;;;;;;;5021760;28;19910;-82
2022/03/23 04:19:33;;;;;;;;;;;;;;;;;;5020944;28;19920;-82
2022/03/23 04:21:58;;;;;;;;;;;;;;;;;;5022390;28;19932;-82
2022/03/23 04:24:24;;;;;;;;;;;;;;;;;;5022441;28;19917;-83
2022/03/23 04:26:49;;;;;;;;;;;;;;;;;;5019660;28;19996;-81
2022/03/23 04:29:14;;;;;;;;;;;;;;;;;;5021064;28;20372;-81
2022/03/23 04:31:39;;;;;;;;;;;;;;;;;;5021544;28;19909;-82
2022/03/23 04:34:05;;;;;;;;;;;;;;;;;;5021319;28;19918;-82
2022/03/23 04:36:30;;;;;;;;;;;;;;;;;;5019674;28;19916;-82
2022/03/23 04:38:57;;;;;;;;;;;;;;;;;;5020077;28;20008;-82
2022/03/23 04:41:22;;;;;;;;;;;;;;;;;;5019019;28;20374;-82
2022/03/23 04:43:47;;;;;;;;;;;;;;;;;;5017873;28;20290;-82
2022/03/23 04:46:12;;;;;;;;;;;;;;;;;;5018928;28;19914;-82
2022/03/23 04:48:38;;;;;;;;;;;;;;;;;;5019545;28;19909;-83
2022/03/23 04:51:03;;;;;;;;;;;;;;;;;;5019384;28;19909;-82
2022/03/23 04:53:28;;;;;;;;;;;;;;;;;;5018520;28;19928;-82
2022/03/23 04:55:53;;;;;;;;;;;;;;;;;;5020438;28;19916;-82
2022/03/23 04:58:19;;;;;;;;;;;;;;;;;;5018319;28;20374;-81
2022/03/23 05:00:44;;;;;;;;;;;;;;;;;;5018922;28;20291;-82
2022/03/23 05:03:10;;;;;;;;;;;;;;;;;;5019030;28;19917;-82
2022/03/23 05:05:35;;;;;;;;;;;;;;;;;;5019365;28;19906;-82
2022/03/23 05:08:00;;;;;;;;;;;;;;;;;;5018625;28;19972;-82
2022/03/23 05:10:25;;;;;;;;;;;;;;;;;;5018743;28;20362;-82
2022/03/23 05:12:51;;;;;;;;;;;;;;;;;;5017701;28;19918;-82
2022/03/23 05:15:16;;;;;;;;;;;;;;;;;;5017911;28;19914;-81
2022/03/23 05:17:41;;;;;;;;;;;;;;;;;;5018440;28;20325;-81
2022/03/23 05:20:06;;;;;;;;;;;;;;;;;;5020541;28;19917;-82
2022/03/23 05:22:32;;;;;;;;;;;;;;;;;;5018711;28;19916;-82
2022/03/23 05:24:57;;;;;;;;;;;;;;;;;;5021007;28;19932;-82
2022/03/23 05:27:22;;;;;;;;;;;;;;;;;;5020063;28;19910;-82
2022/03/23 05:29:47;;;;;;;;;;;;;;;;;;5019355;28;20363;-82
2022/03/23 05:32:16;;;;;;;;;;;;;;;;;;5020368;28;19921;-82
2022/03/23 05:34:41;;;;;;;;;;;;;;;;;;5019257;28;19965;-83
2022/03/23 05:37:06;;;;;;;;;;;;;;;;;;5021088;28;19931;-83
2022/03/23 05:39:31;;;;;;;;;;;;;;;;;;5021186;28;20282;-82
2022/03/23 05:41:56;;;;;;;;;;;;;;;;;;5019735;28;20354;-82
2022/03/23 05:44:21;;;;;;;;;;;;;;;;;;5020750;28;19996;-82
2022/03/23 05:46:46;;;;;;;;;;;;;;;;;;5019236;28;20003;-82
2022/03/23 05:49:11;;;;;;;;;;;;;;;;;;5019674;28;20000;-82
2022/03/23 05:51:36;;;;;;;;;;;;;;;;;;5018578;28;20007;-82
2022/03/23 05:54:02;;;;;;;;;;;;;;;;;;5020147;28;19985;-82
2022/03/23 05:56:27;;;;;;;;;;;;;;;;;;5020136;28;19914;-80
2022/03/23 05:58:53;;;;;;;;;;;;;;;;;;5019851;28;20012;-82
2022/03/23 06:01:18;;;;;;;;;;;;;;;;;;5020021;28;19909;-82
2022/03/23 06:03:44;;;;;;;;;;;;;;;;;;5019730;28;19921;-81
2022/03/23 06:06:09;;;;;;;;;;;;;;;;;;5021010;28;19917;-81
2022/03/23 06:08:34;;;;;;;;;;;;;;;;;;5024121;28;20027;-81
2022/03/23 06:11:00;;;;;;;;;;;;;;;;;;5028947;28;19913;-83
2022/03/23 06:13:25;;;;;;;;;;;;;;;;;;5039550;28;19921;-81
2022/03/23 06:15:50;;;;;;;;;;;;;;;;;;5037735;28;19910;-82
2022/03/23 06:18:15;;;;;;;;;;;;;;;;;;5034953;28;19909;-83
2022/03/23 06:20:40;;;;;;;;;;;;;;;;;;5037700;28;19915;-83
2022/03/23 06:23:05;;;;;;;;;;;;;;;;;;5036459;28;20304;-81
2022/03/23 06:25:30;;;;;;;;;;;;;;;;;;5035401;28;19958;-82
2022/03/23 06:27:56;;;;;;;;;;;;;;;;;;5037294;28;20278;-84
2022/03/23 06:30:21;;;;;;;;;;;;;;;;;;5035985;28;19995;-80
2022/03/23 06:32:46;;;;;;;;;;;;;;;;;;5036530;28;20131;-83
2022/03/23 06:35:11;;;;;;;;;;;;;;;;;;5036284;28;19909;-83
2022/03/23 06:37:37;;;;;;;;;;;;;;;;;;5036148;28;19909;-83
2022/03/23 06:40:03;;;;;;;;;;;;;;;;;;5037336;28;19909;-83
2022/03/23 06:42:28;;;;;;;;;;;;;;;;;;5036237;28;19916;-82
2022/03/23 06:44:53;;;;;;;;;;;;;;;;;;5036286;28;20003;-83
2022/03/23 06:47:18;;;;;;;;;;;;;;;;;;5035629;28;20264;-83
2022/03/23 06:49:45;;;;;;;;;;;;;;;;;;5034977;28;19913;-81
2022/03/23 06:52:10;;;;;;;;;;;;;;;;;;5034758;28;19932;-81
2022/03/23 06:54:35;;;;;;;;;;;;;;;;;;5035292;28;19926;-80
2022/03/23 06:57:00;;;;;;;;;;;;;;;;;;5035582;28;19916;-82
2022/03/23 06:59:25;;;;;;;;;;;;;;;;;;5037524;28;20365;-82
2022/03/23 07:01:50;;;;;;;;;;;;;;;;;;5031602;28;19989;-82
2022/03/23 07:04:15;;;;;;;;;;;;;;;;;;5035446;28;19917;-80
2022/03/23 07:06:41;;;;;;;;;;;;;;;;;;5036498;28;19909;-81
2022/03/23 07:11:50;;;;;;;;;;;;;;;;;;5036085;28;19940;-81
2022/03/23 07:14:16;;;;;;;;;;;;;;;;;;5036464;28;19913;-83
2022/03/23 07:16:42;;;;;;;;;;;;;;;;;;5035172;28;19913;-83
2022/03/23 07:19:08;;;;;;;;;;;;;;;;;;5026529;28;19956;-81
2022/03/23 07:21:33;;;;;;;;;;;;;;;;;;5018303;28;19928;-82
2022/03/23 07:23:58;;;;;;;;;;;;;;;;;;5013992;28;19910;-83
2022/03/23 07:26:24;;;;;;;;;;;;;;;;;;5015765;28;19905;-82
2022/03/23 07:28:50;;;;;;;;;;;;;;;;;;5014777;28;20280;-82
2022/03/23 07:31:15;;;;;;;;;;;;;;;;;;5013897;28;19956;-82
2022/03/23 07:33:40;;;;;;;;;;;;;;;;;;5012992;28;20353;-83
2022/03/23 07:36:05;;;;;;;;;;;;;;;;;;5015462;28;20345;-82
2022/03/23 07:38:30;;;;;;;;;;;;;;;;;;5017632;28;19969;-82
2022/03/23 07:40:58;;;;;;;;;;;;;;;;;;5018894;28;20192;-82
2022/03/23 07:43:23;;;;;;;;;;;;;;;;;;5017040;28;19949;-83
2022/03/23 07:45:48;;;;;;;;;;;;;;;;;;5018282;28;19910;-82
2022/03/23 07:48:15;;;;;;;;;;;;;;;;;;5017896;28;19913;-83
2022/03/23 07:50:40;;;;;;;;;;;;;;;;;;5018305;28;20048;-82
2022/03/23 07:53:05;;;;;;;;;;;;;;;;;;5018175;28;19960;-82
2022/03/23 07:55:30;;;;;;;;;;;;;;;;;;5018327;28;19965;-82
2022/03/23 07:57:56;;;;;;;;;;;;;;;;;;5018041;28;19917;-82
2022/03/23 08:00:21;;;;;;;;;;;;;;;;;;5016632;28;19914;-83
2022/03/23 08:02:46;;;;;;;;;;;;;;;;;;5017995;28;19933;-83
2022/03/23 08:05:11;;;;;;;;;;;;;;;;;;5018750;28;19910;-82
2022/03/23 08:07:37;;;;;;;;;;;;;;;;;;5020497;28;19910;-83
2022/03/23 08:10:02;;;;;;;;;;;;;;;;;;5019143;28;20287;-83
2022/03/23 08:12:27;;;;;;;;;;;;;;;;;;5018330;28;19967;-82
2022/03/23 08:14:52;;;;;;;;;;;;;;;;;;5018808;28;19916;-83
2022/03/23 08:17:17;;;;;;;;;;;;;;;;;;5020252;28;19932;-83
2022/03/23 08:19:42;;;;;;;;;;;;;;;;;;5018896;28;20279;-83
2022/03/23 08:22:09;;;;;;;;;;;;;;;;;;5018682;28;19909;-83
2022/03/23 08:24:34;;;;;;;;;;;;;;;;;;5020332;28;19920;-83
2022/03/23 08:26:59;;;;;;;;;;;;;;;;;;5018601;28;19976;-82
2022/03/23 08:29:24;;;;;;;;;;;;;;;;;;5020608;28;20008;-82
2022/03/23 08:31:50;;;;;;;;;;;;;;;;;;5018197;28;19909;-83
2022/03/23 08:34:15;;;;;;;;;;;;;;;;;;5020326;28;20417;-83
2022/03/23 08:36:40;;;;;;;;;;;;;;;;;;5019497;28;19917;-83
2022/03/23 08:39:05;;;;;;;;;;;;;;;;;;5018158;28;19910;-83
2022/03/23 08:41:30;;;;;;;;;;;;;;;;;;5022979;28;19917;-83
2022/03/23 08:43:55;;;;;;;;;;;;;;;;;;5028103;28;19909;-83
2022/03/23 08:46:21;;;;;;;;;;;;;;;;;;5023863;28;19910;-83
2022/03/23 08:48:46;;;;;;;;;;;;;;;;;;5017907;28;19910;-83
2022/03/23 08:51:11;;;;;;;;;;;;;;;;;;5021448;28;20477;-83
2022/03/23 08:53:38;;;;;;;;;;;;;;;;;;5019399;28;19925;-83
2022/03/23 08:56:03;;;;;;;;;;;;;;;;;;5019513;28;19991;-83
2022/03/23 08:58:28;;;;;;;;;;;;;;;;;;5019305;28;19897;-83
2022/03/23 09:00:54;;;;;;;;;;;;;;;;;;5000744;28;20299;-82
2022/03/23 09:03:19;;;;;;;;;;;;;;;;;;5000686;28;19917;-83
2022/03/23 09:05:44;;;;;;;;;;;;;;;;;;5018912;28;19968;-82
2022/03/23 09:08:09;;;;;;;;;;;;;;;;;;5001609;28;19916;-83
2022/03/23 09:10:34;;;;;;;;;;;;;;;;;;5000919;28;19920;-83
2022/03/23 09:12:59;;;;;;;;;;;;;;;;;;5000722;28;20294;-83
2022/03/23 09:15:24;;;;;;;;;;;;;;;;;;5000657;28;19909;-81
2022/03/23 09:17:49;;;;;;;;;;;;;;;;;;5000098;28;20264;-83
2022/03/23 09:20:16;;;;;;;;;;;;;;;;;;4999078;28;20359;-83
2022/03/23 09:22:41;;;;;;;;;;;;;;;;;;5001080;28;19910;-83
2022/03/23 09:25:06;;;;;;;;;;;;;;;;;;5001432;28;19909;-83
2022/03/23 09:27:31;;;;;;;;;;;;;;;;;;5018874;28;19917;-83
2022/03/23 09:29:56;;;;;;;;;;;;;;;;;;5001271;28;19905;-83
2022/03/23 09:32:22;;;;;;;;;;;;;;;;;;5000548;28;19925;-83
2022/03/23 09:34:49;;;;;;;;;;;;;;;;;;5018170;28;20000;-82
2022/03/23 09:39:58;;;;;;;;;;;;;;;;;;5017315;28;19955;-83
2022/03/23 09:42:23;;;;;;;;;;;;;;;;;;5001937;28;20004;-82
2022/03/23 09:44:48;;;;;;;;;;;;;;;;;;5019924;28;20290;-82
2022/03/23 09:47:13;;;;;;;;;;;;;;;;;;5019738;28;19909;-82
2022/03/23 09:49:38;;;;;;;;;;;;;;;;;;5000847;28;19916;-83
2022/03/23 09:52:04;;;;;;;;;;;;;;;;;;5000110;28;19925;-82
2022/03/23 09:54:29;;;;;;;;;;;;;;;;;;5012869;28;20334;-83
2022/03/23 09:56:54;;;;;;;;;;;;;;;;;;5015767;28;19916;-83
2022/03/23 09:59:20;;;;;;;;;;;;;;;;;;5015533;28;19917;-83
2022/03/23 10:01:45;;;;;;;;;;;;;;;;;;5017147;28;19910;-83
2022/03/23 10:04:10;;;;;;;;;;;;;;;;;;5016054;28;19918;-82
2022/03/23 10:06:35;;;;;;;;;;;;;;;;;;5015864;28;19898;-82
2022/03/23 10:09:00;;;;;;;;;;;;;;;;;;5015733;28;20379;-82
2022/03/23 10:11:25;;;;;;;;;;;;;;;;;;5015674;28;19971;-83
2022/03/23 10:13:50;;;;;;;;;;;;;;;;;;5017140;28;19917;-83
2022/03/23 10:16:16;;;;;;;;;;;;;;;;;;5016013;28;19916;-82
2022/03/23 10:18:41;;;;;;;;;;;;;;;;;;5016038;28;19916;-82
2022/03/23 10:21:06;;;;;;;;;;;;;;;;;;5016138;28;19909;-82
2022/03/23 10:23:31;;;;;;;;;;;;;;;;;;5017207;28;19894;-82
2022/03/23 10:25:57;;;;;;;;;;;;;;;;;;5015334;28;19916;-82
2022/03/23 10:28:22;;;;;;;;;;;;;;;;;;5016648;28;20202;-83
2022/03/23 10:30:47;;;;;;;;;;;;;;;;;;5015716;28;19992;-83
2022/03/23 10:33:13;;;;;;;;;;;;;;;;;;5015566;28;19969;-82
2022/03/23 10:35:38;;;;;;;;;;;;;;;;;;5017066;28;19944;-83
2022/03/23 10:38:03;;;;;;;;;;;;;;;;;;5016563;28;19920;-83
2022/03/23 10:40:28;;;;;;;;;;;;;;;;;;5015185;28;20442;-83
2022/03/23 10:42:53;;;;;;;;;;;;;;;;;;5014303;28;19909;-82
2022/03/23 10:45:18;;;;;;;;;;;;;;;;;;5015858;28;20359;-84
2022/03/23 10:47:44;;;;;;;;;;;;;;;;;;5014500;28;19932;-83
2022/03/23 10:50:10;;;;;;;;;;;;;;;;;;5015966;28;19909;-82
2022/03/23 10:52:35;;;;;;;;;;;;;;;;;;5014326;28;19957;-83
2022/03/23 10:55:00;;;;;;;;;;;;;;;;;;4998141;28;20408;-84
2022/03/23 10:57:25;;;;;;;;;;;;;;;;;;4997844;28;19914;-83
2022/03/23 10:59:50;;;;;;;;;;;;;;;;;;5015496;28;19909;-83
2022/03/23 11:02:16;;;;;;;;;;;;;;;;;;4998072;28;19909;-83
2022/03/23 11:04:42;;;;;;;;;;;;;;;;;;4998544;28;19910;-83
2022/03/23 11:07:07;;;;;;;;;;;;;;;;;;4998036;28;19909;-83
2022/03/23 11:17:44;;;;;;;;;;;;;;;;;;5020478;28;19917;-83
2022/03/23 11:20:09;;;;;;;;;;;;;;;;;;5002902;28;19909;-83
2022/03/23 11:22:34;;;;;;;;;;;;;;;;;;5003098;28;19913;-83
2022/03/23 11:24:59;;;;;;;;;;;;;;;;;;5002367;28;19909;-83
2022/03/23 11:27:24;;;;;;;;;;;;;;;;;;5019733;28;19917;-83
2022/03/23 11:29:51;;;;;;;;;;;;;;;;;;5021596;28;20244;-84
2022/03/23 11:32:16;;;;;;;;;;;;;;;;;;5001863;28;19917;-83
2022/03/23 11:34:41;;;;;;;;;;;;;;;;;;5002457;28;20035;-83
2022/03/23 11:37:07;;;;;;;;;;;;;;;;;;5003025;28;19957;-83
2022/03/23 11:39:32;;;;;;;;;;;;;;;;;;5002840;28;19909;-83
2022/03/23 11:41:58;;;;;;;;;;;;;;;;;;5018184;28;19905;-84
2022/03/23 11:44:23;;;;;;;;;;;;;;;;;;5002088;28;19997;-83
2022/03/23 11:46:49;;;;;;;;;;;;;;;;;;5000288;28;19937;-83
2022/03/23 11:49:14;;;;;;;;;;;;;;;;;;5002058;28;19961;-82
2022/03/23 11:51:39;;;;;;;;;;;;;;;;;;5002515;28;19912;-82
2022/03/23 11:54:04;;;;;;;;;;;;;;;;;;5012194;28;19980;-81
2022/03/23 11:56:29;;;;;;;;;;;;;;;;;;5019479;28;20279;-82
2022/03/23 11:58:54;;;;;;;;;;;;;;;;;;5017870;28;20023;-81
2022/03/23 12:01:20;;;;;;;;;;;;;;;;;;5017868;28;19914;-81
2022/03/23 12:03:45;;;;;;;;;;;;;;;;;;5018086;28;19921;-83
2022/03/23 12:06:11;;;;;;;;;;;;;;;;;;5014116;28;20032;-81
2022/03/23 12:08:36;;;;;;;;;;;;;;;;;;5011885;28;19910;-80
2022/03/23 12:11:01;;;;;;;;;;;;;;;;;;5016898;28;19919;-78
2022/03/23 12:13:26;;;;;;;;;;;;;;;;;;5017207;28;20013;-80
2022/03/23 12:15:51;;;;;;;;;;;;;;;;;;5016477;28;19909;-80
2022/03/23 12:18:16;;;;;;;;;;;;;;;;;;5018181;28;19910;-81
2022/03/23 12:20:41;;;;;;;;;;;;;;;;;;5017376;28;19921;-80
2022/03/23 12:23:07;;;;;;;;;;;;;;;;;;5013570;28;19914;-80
2022/03/23 12:25:32;;;;;;;;;;;;;;;;;;5015884;28;19910;-80
2022/03/23 12:27:57;;;;;;;;;;;;;;;;;;5005949;28;19910;-81
2022/03/23 12:30:22;;;;;;;;;;;;;;;;;;4996230;28;19910;-80
2022/03/23 12:32:47;;;;;;;;;;;;;;;;;;4998291;28;20021;-79
2022/03/23 12:35:12;;;;;;;;;;;;;;;;;;4997126;28;19924;-80
2022/03/23 12:37:38;;;;;;;;;;;;;;;;;;4997155;28;19910;-79
2022/03/23 12:40:03;;;;;;;;;;;;;;;;;;5010834;28;19914;-80
2022/03/23 12:42:28;;;;;;;;;;;;;;;;;;5017106;28;20418;-81
2022/03/23 12:44:53;;;;;;;;;;;;;;;;;;5016476;28;19920;-80
2022/03/23 12:47:18;;;;;;;;;;;;;;;;;;5015297;28;19975;-80
2022/03/23 12:57:55;;;;;;;;;;;;;;;;;;5016803;28;19963;-80
2022/03/23 13:00:25;;;;;;;;;;;;;;;;;;5018206;28;19913;-80
2022/03/23 13:02:50;;;;;;;;;;;;;;;;;;5018195;28;19917;-82
2022/03/23 13:05:15;;;;;;;;;;;;;;;;;;4998925;28;19946;-80
2022/03/23 13:07:40;;;;;;;;;;;;;;;;;;5016782;28;20367;-80
2022/03/23 13:10:05;;;;;;;;;;;;;;;;;;4998764;28;19918;-80
2022/03/23 13:12:31;;;;;;;;;;;;;;;;;;5014767;28;20307;-81
2022/03/23 13:14:56;;;;;;;;;;;;;;;;;;5014702;28;19910;-81
2022/03/23 13:17:22;;;;;;;;;;;;;;;;;;4997732;28;20344;-80
2022/03/23 13:19:47;;;;;;;;;;;;;;;;;;5015243;28;20004;-80
2022/03/23 13:22:12;;;;;;;;;;;;;;;;;;5015430;28;19910;-80
2022/03/23 13:24:38;;;;;;;;;;;;;;;;;;5015394;28;19933;-81
2022/03/23 13:27:03;;;;;;;;;;;;;;;;;;5016505;28;19910;-79
2022/03/23 13:29:28;;;;;;;;;;;;;;;;;;4998753;28;19910;-81
2022/03/23 13:31:54;;;;;;;;;;;;;;;;;;5018039;28;20356;-80
2022/03/23 13:34:21;;;;;;;;;;;;;;;;;;4999291;28;19917;-81
2022/03/23 13:36:48;;;;;;;;;;;;;;;;;;5000335;28;19940;-80
2022/03/23 13:39:13;;;;;;;;;;;;;;;;;;5016149;28;19972;-80
2022/03/23 13:44:54;;;;;;;;;;;;;;;;;;5017049;28;19963;-80
2022/03/23 13:47:07;;;;;;;;;;;;;;;;;;5027763;28;19913;-82
2022/03/23 13:49:33;;;;;;;;;;;;;;;;;;5006352;28;19940;-82
2022/03/23 13:51:58;;;;;;;;;;;;;;;;;;5007614;28;19952;-81
2022/03/23 13:54:25;;;;;;;;;;;;;;;;;;5005704;28;19921;-82
2022/03/23 13:56:50;;;;;;;;;;;;;;;;;;5014977;28;19929;-82
2022/03/23 13:59:16;;;;;;;;;;;;;;;;;;5018825;28;19913;-82
2022/03/23 14:01:42;;;;;;;;;;;;;;;;;;5011459;28;19914;-81
2022/03/23 14:04:08;;;;;;;;;;;;;;;;;;5006395;28;19926;-83
2022/03/23 14:06:33;;;;;;;;;;;;;;;;;;5015970;28;19977;-82
2022/03/23 14:08:58;;;;;;;;;;;;;;;;;;5006011;28;19929;-84
2022/03/23 14:14:07;;;;;;;;;;;;;;;;;;4997191;28;19925;-82
2022/03/23 14:16:32;;;;;;;;;;;;;;;;;;4995396;28;19910;-83
2022/03/23 14:18:59;;;;;;;;;;;;;;;;;;5001018;28;19910;-84
2022/03/23 14:21:24;;;;;;;;;;;;;;;;;;5014544;28;19913;-81
2022/03/23 14:23:49;;;;;;;;;;;;;;;;;;5014918;28;19917;-83
2022/03/23 14:26:14;;;;;;;;;;;;;;;;;;5013048;28;19924;-81
2022/03/23 14:28:39;;;;;;;;;;;;;;;;;;5000287;28;19920;-82
2022/03/23 14:31:04;;;;;;;;;;;;;;;;;;4995406;28;20308;-82
2022/03/23 14:33:30;;;;;;;;;;;;;;;;;;4996613;28;20017;-83
2022/03/23 14:35:55;;;;;;;;;;;;;;;;;;4995701;28;19909;-84
2022/03/23 14:38:20;;;;;;;;;;;;;;;;;;4995960;28;19921;-82
2022/03/23 14:40:45;;;;;;;;;;;;;;;;;;4996893;28;19913;-84
2022/03/23 14:43:11;;;;;;;;;;;;;;;;;;4996353;28;20342;-83
2022/03/23 14:45:42;;;;;;;;;;;;;;;;;;5021120;28;19913;-83
2022/03/23 14:48:08;;;;;;;;;;;;;;;;;;5026728;28;19909;-83
2022/03/23 14:50:33;;;;;;;;;;;;;;;;;;5023904;28;19910;-84
2022/03/23 14:52:58;;;;;;;;;;;;;;;;;;5025117;28;19976;-83
2022/03/23 14:55:23;;;;;;;;;;;;;;;;;;4997325;28;19956;-83
2022/03/23 14:57:49;;;;;;;;;;;;;;;;;;4997408;28;20434;-83
2022/03/23 15:00:14;;;;;;;;;;;;;;;;;;5015623;28;19913;-82
2022/03/23 15:02:39;;;;;;;;;;;;;;;;;;5013985;28;19944;-81
2022/03/23 15:05:04;;;;;;;;;;;;;;;;;;5013579;28;19929;-81
2022/03/23 15:15:43;;;;;;;;;;;;;;;;;;5014982;28;19932;-82
2022/03/23 15:18:08;;;;;;;;;;;;;;;;;;5013536;28;19910;-81
2022/03/23 15:20:33;;;;;;;;;;;;;;;;;;5014069;28;19940;-82
2022/03/23 15:22:58;;;;;;;;;;;;;;;;;;5015640;28;19955;-83
2022/03/23 15:25:25;;;;;;;;;;;;;;;;;;5011115;28;20004;-83
2022/03/23 15:27:50;;;;;;;;;;;;;;;;;;5009840;28;19927;-82
2022/03/23 15:30:15;;;;;;;;;;;;;;;;;;5024013;28;19913;-82
2022/03/23 15:32:40;;;;;;;;;;;;;;;;;;4996454;28;19922;-82
2022/03/23 15:35:05;;;;;;;;;;;;;;;;;;4996016;28;19913;-82
2022/03/23 15:37:30;;;;;;;;;;;;;;;;;;5014143;28;19920;-81
2022/03/23 15:39:55;;;;;;;;;;;;;;;;;;5014054;28;19909;-84
2022/03/23 15:43:03;;;;;;;;;;;;;;;;;;5014003;28;19953;-83
2022/03/23 15:45:10;;;;;;;;;;;;;;;;;;5004992;28;19917;-83
2022/03/23 15:47:35;;;;;;;;;;;;;;;;;;5015870;28;19897;-84
2022/03/23 15:50:00;;;;;;;;;;;;;;;;;;4998573;28;19955;-84
2022/03/23 15:52:27;;;;;;;;;;;;;;;;;;4997112;28;19918;-81
2022/03/23 15:54:52;;;;;;;;;;;;;;;;;;4997523;28;20386;-82
2022/03/23 15:57:17;;;;;;;;;;;;;;;;;;4999739;28;20430;-83
2022/03/23 15:59:42;;;;;;;;;;;;;;;;;;5001537;28;19910;-82
2022/03/23 16:02:07;;;;;;;;;;;;;;;;;;5001866;28;19909;-81
2022/03/23 16:04:32;;;;;;;;;;;;;;;;;;5001688;28;19920;-81
2022/03/23 16:06:58;;;;;;;;;;;;;;;;;;5001564;28;19916;-82
2022/03/23 16:09:23;;;;;;;;;;;;;;;;;;5017695;28;20252;-81
2022/03/23 16:11:50;;;;;;;;;;;;;;;;;;5000949;28;20371;-82
2022/03/23 16:14:15;;;;;;;;;;;;;;;;;;5016871;28;19960;-81
2022/03/23 16:16:41;;;;;;;;;;;;;;;;;;4997960;28;19999;-82
2022/03/23 16:19:06;;;;;;;;;;;;;;;;;;5000220;28;19909;-82
2022/03/23 16:21:32;;;;;;;;;;;;;;;;;;4999518;28;19916;-82
2022/03/23 16:23:57;;;;;;;;;;;;;;;;;;4998975;28;19909;-81
2022/03/23 16:26:23;;;;;;;;;;;;;;;;;;4999804;28;19916;-82
2022/03/23 16:28:52;;;;;;;;;;;;;;;;;;4998574;28;19933;-80
2022/03/23 16:31:17;;;;;;;;;;;;;;;;;;5016271;28;19916;-83
2022/03/23 16:33:43;;;;;;;;;;;;;;;;;;4998658;28;20020;-82
2022/03/23 16:36:08;;;;;;;;;;;;;;;;;;4999581;28;19901;-81
2022/03/23 16:38:34;;;;;;;;;;;;;;;;;;5017551;28;20007;-82
2022/03/23 16:41:33;;;;;;;;;;;;;;;;;;4996578;28;20367;-81
2022/03/23 16:43:44;;;;;;;;;;;;;;;;;;5016779;28;19910;-82
2022/03/23 16:46:09;;;;;;;;;;;;;;;;;;4998708;28;19910;-82
2022/03/23 16:48:34;;;;;;;;;;;;;;;;;;4999791;28;19916;-81
2022/03/23 16:50:59;;;;;;;;;;;;;;;;;;4999650;28;19909;-81
2022/03/23 16:53:26;;;;;;;;;;;;;;;;;;5003456;28;19925;-82
2022/03/23 16:55:51;;;;;;;;;;;;;;;;;;5014354;28;19971;-83
2022/03/23 16:58:16;;;;;;;;;;;;;;;;;;5014337;28;19913;-81
2022/03/23 17:00:41;;;;;;;;;;;;;;;;;;5014029;28;19915;-81
2022/03/23 17:14:15;;;;;;;;;;;;;;;;;;5016853;28;19943;-81
2022/03/23 17:16:41;;;;;;;;;;;;;;;;;;5015622;28;19957;-81
2022/03/23 17:19:07;;;;;;;;;;;;;;;;;;5016993;28;20007;-81
2022/03/23 17:21:32;;;;;;;;;;;;;;;;;;5016265;28;20022;-81
2022/03/23 17:23:57;;;;;;;;;;;;;;;;;;5015369;28;20007;-82
2022/03/23 17:26:23;;;;;;;;;;;;;;;;;;5015775;28;19996;-82
2022/03/23 17:28:48;;;;;;;;;;;;;;;;;;5016568;28;20004;-81